sensor_id;sensor_type;location;lat;lon;timestamp;temperature;humidity
69901;DHT22;57183;50.930;5.406;2022-07-23T00:01:15;17.70;99.90
69901;DHT22;57183;50.930;5.406;2022-07-23T00:03:41;17.60;99.90
69901;DHT22;57183;50.930;5.406;2022-07-23T00:06:07;17.70;99.90
69901;DHT22;57183;50.930;5.406;2022-07-23T00:08:32;17.70;99.90
69901;DHT22;57183;50.930;5.406;2022-07-23T00:10:58;17.70;99.90
69901;DHT22;57183;50.930;5.406;2022-07-23T00:13:24;17.70;99.90
69901;DHT22;57183;50.930;5.406;2022-07-23T00:15:49;17.70;99.90
69901;DHT22;57183;50.930;5.406;2022-07-23T00:18:15;17.60;99.90
69901;DHT22;57183;50.930;5.406;2022-07-23T00:20:41;17.60;99.90
69901;DHT22;57183;50.930;5.406;2022-07-23T00:23:06;17.40;99.90
69901;DHT22;57183;50.930;5.406;2022-07-23T00:25:32;17.40;99.90
69901;DHT22;57183;50.930;5.406;2022-07-23T00:27:58;17.40;99.90
69901;DHT22;57183;50.930;5.406;2022-07-23T00:30:24;17.40;99.90
69901;DHT22;57183;50.930;5.406;2022-07-23T00:32:52;17.30;99.90
69901;DHT22;57183;50.930;5.406;2022-07-23T00:35:26;17.20;99.90
69901;DHT22;57183;50.930;5.406;2022-07-23T00:37:52;17.20;99.90
69901;DHT22;57183;50.930;5.406;2022-07-23T00:40:18;17.30;99.90
69901;DHT22;57183;50.930;5.406;2022-07-23T00:42:44;17.20;99.90
69901;DHT22;57183;50.930;5.406;2022-07-23T00:45:10;17.20;99.90
69901;DHT22;57183;50.930;5.406;2022-07-23T00:47:36;17.20;99.90
69901;DHT22;57183;50.930;5.406;2022-07-23T00:50:06;17.10;99.90
69901;DHT22;57183;50.930;5.406;2022-07-23T00:52:33;17.10;99.90
69901;DHT22;57183;50.930;5.406;2022-07-23T00:54:59;17.10;99.90
69901;DHT22;57183;50.930;5.406;2022-07-23T00:57:25;17.00;99.90
69901;DHT22;57183;50.930;5.406;2022-07-23T00:59:50;17.00;99.90
69901;DHT22;57183;50.930;5.406;2022-07-23T01:02:16;16.80;99.90
69901;DHT22;57183;50.930;5.406;2022-07-23T01:04:42;16.80;99.90
69901;DHT22;57183;50.930;5.406;2022-07-23T01:07:08;16.70;99.90
69901;DHT22;57183;50.930;5.406;2022-07-23T01:09:33;16.70;99.90
69901;DHT22;57183;50.930;5.406;2022-07-23T01:11:59;16.60;99.90
69901;DHT22;57183;50.930;5.406;2022-07-23T01:14:25;16.50;99.90
69901;DHT22;57183;50.930;5.406;2022-07-23T01:16:52;16.50;99.90
69901;DHT22;57183;50.930;5.406;2022-07-23T01:19:19;16.50;99.90
69901;DHT22;57183;50.930;5.406;2022-07-23T01:21:49;16.50;99.90
69901;DHT22;57183;50.930;5.406;2022-07-23T01:24:16;16.50;99.90
69901;DHT22;57183;50.930;5.406;2022-07-23T01:26:45;16.40;99.90
69901;DHT22;57183;50.930;5.406;2022-07-23T01:29:12;16.50;99.90
69901;DHT22;57183;50.930;5.406;2022-07-23T01:31:38;16.50;99.90
69901;DHT22;57183;50.930;5.406;2022-07-23T01:34:04;16.50;99.90
69901;DHT22;57183;50.930;5.406;2022-07-23T01:36:30;16.40;99.90
69901;DHT22;57183;50.930;5.406;2022-07-23T01:38:55;16.40;99.90
69901;DHT22;57183;50.930;5.406;2022-07-23T01:41:21;16.30;99.90
69901;DHT22;57183;50.930;5.406;2022-07-23T01:43:47;16.30;99.90
69901;DHT22;57183;50.930;5.406;2022-07-23T01:46:13;16.30;99.90
69901;DHT22;57183;50.930;5.406;2022-07-23T01:48:39;16.20;99.90
69901;DHT22;57183;50.930;5.406;2022-07-23T01:51:05;16.20;99.90
69901;DHT22;57183;50.930;5.406;2022-07-23T01:53:30;16.20;99.90
69901;DHT22;57183;50.930;5.406;2022-07-23T01:55:57;16.20;99.90
69901;DHT22;57183;50.930;5.406;2022-07-23T01:58:23;16.20;99.90
69901;DHT22;57183;50.930;5.406;2022-07-23T02:00:49;16.20;99.90
69901;DHT22;57183;50.930;5.406;2022-07-23T02:03:14;16.20;99.90
69901;DHT22;57183;50.930;5.406;2022-07-23T02:05:40;16.10;99.90
69901;DHT22;57183;50.930;5.406;2022-07-23T02:08:06;16.00;99.90
69901;DHT22;57183;50.930;5.406;2022-07-23T02:10:31;16.00;99.90
69901;DHT22;57183;50.930;5.406;2022-07-23T02:12:57;16.00;99.90
69901;DHT22;57183;50.930;5.406;2022-07-23T02:15:23;15.90;99.90
69901;DHT22;57183;50.930;5.406;2022-07-23T02:17:49;15.90;99.90
69901;DHT22;57183;50.930;5.406;2022-07-23T02:20:14;15.90;99.90
69901;DHT22;57183;50.930;5.406;2022-07-23T02:22:40;15.90;99.90
69901;DHT22;57183;50.930;5.406;2022-07-23T02:25:07;15.90;99.90
69901;DHT22;57183;50.930;5.406;2022-07-23T02:27:35;15.90;99.90
69901;DHT22;57183;50.930;5.406;2022-07-23T02:30:01;15.90;99.90
69901;DHT22;57183;50.930;5.406;2022-07-23T02:32:28;15.80;99.90
69901;DHT22;57183;50.930;5.406;2022-07-23T02:34:54;15.80;99.90
69901;DHT22;57183;50.930;5.406;2022-07-23T02:37:19;15.70;99.90
69901;DHT22;57183;50.930;5.406;2022-07-23T02:39:45;15.60;99.90
69901;DHT22;57183;50.930;5.406;2022-07-23T02:42:10;15.60;99.90
69901;DHT22;57183;50.930;5.406;2022-07-23T02:44:36;15.60;99.90
69901;DHT22;57183;50.930;5.406;2022-07-23T02:47:02;15.60;99.90
69901;DHT22;57183;50.930;5.406;2022-07-23T02:49:28;15.50;99.90
69901;DHT22;57183;50.930;5.406;2022-07-23T02:51:54;15.50;99.90
69901;DHT22;57183;50.930;5.406;2022-07-23T02:54:19;15.50;99.90
69901;DHT22;57183;50.930;5.406;2022-07-23T02:56:46;15.60;99.90
69901;DHT22;57183;50.930;5.406;2022-07-23T02:59:11;15.50;99.90
69901;DHT22;57183;50.930;5.406;2022-07-23T03:01:37;15.50;99.90
69901;DHT22;57183;50.930;5.406;2022-07-23T03:04:03;15.40;99.90
69901;DHT22;57183;50.930;5.406;2022-07-23T03:06:29;15.40;99.90
69901;DHT22;57183;50.930;5.406;2022-07-23T03:08:54;15.30;99.90
69901;DHT22;57183;50.930;5.406;2022-07-23T03:11:20;15.30;99.90
69901;DHT22;57183;50.930;5.406;2022-07-23T03:13:46;15.20;99.90
69901;DHT22;57183;50.930;5.406;2022-07-23T03:16:11;15.20;99.90
69901;DHT22;57183;50.930;5.406;2022-07-23T03:18:37;15.20;99.90
69901;DHT22;57183;50.930;5.406;2022-07-23T03:21:03;15.20;99.90
69901;DHT22;57183;50.930;5.406;2022-07-23T03:23:28;15.30;99.90
69901;DHT22;57183;50.930;5.406;2022-07-23T03:25:54;15.20;99.90
69901;DHT22;57183;50.930;5.406;2022-07-23T03:28:20;15.30;99.90
69901;DHT22;57183;50.930;5.406;2022-07-23T03:30:46;15.30;99.90
69901;DHT22;57183;50.930;5.406;2022-07-23T03:33:13;15.20;99.90
69901;DHT22;57183;50.930;5.406;2022-07-23T03:35:39;15.20;99.90
69901;DHT22;57183;50.930;5.406;2022-07-23T03:38:05;15.10;99.90
69901;DHT22;57183;50.930;5.406;2022-07-23T03:40:31;15.10;99.90
69901;DHT22;57183;50.930;5.406;2022-07-23T03:42:56;15.10;99.90
69901;DHT22;57183;50.930;5.406;2022-07-23T03:45:22;15.10;99.90
69901;DHT22;57183;50.930;5.406;2022-07-23T03:47:48;15.10;99.90
69901;DHT22;57183;50.930;5.406;2022-07-23T03:50:13;15.10;99.90
69901;DHT22;57183;50.930;5.406;2022-07-23T03:52:39;15.10;99.90
69901;DHT22;57183;50.930;5.406;2022-07-23T03:55:05;15.10;99.90
69901;DHT22;57183;50.930;5.406;2022-07-23T03:57:31;15.10;99.90
69901;DHT22;57183;50.930;5.406;2022-07-23T03:59:57;15.00;99.90
69901;DHT22;57183;50.930;5.406;2022-07-23T04:02:23;15.00;99.90
69901;DHT22;57183;50.930;5.406;2022-07-23T04:04:48;15.00;99.90
69901;DHT22;57183;50.930;5.406;2022-07-23T04:07:15;15.00;99.90
69901;DHT22;57183;50.930;5.406;2022-07-23T04:09:43;15.00;99.90
69901;DHT22;57183;50.930;5.406;2022-07-23T04:12:09;14.90;99.90
69901;DHT22;57183;50.930;5.406;2022-07-23T04:14:34;15.00;99.90
69901;DHT22;57183;50.930;5.406;2022-07-23T04:17:00;15.10;99.90
69901;DHT22;57183;50.930;5.406;2022-07-23T04:19:27;15.00;99.90
69901;DHT22;57183;50.930;5.406;2022-07-23T04:21:53;15.00;99.90
69901;DHT22;57183;50.930;5.406;2022-07-23T04:24:18;15.00;99.90
69901;DHT22;57183;50.930;5.406;2022-07-23T04:26:45;15.00;99.90
69901;DHT22;57183;50.930;5.406;2022-07-23T04:29:10;15.00;99.90
69901;DHT22;57183;50.930;5.406;2022-07-23T04:31:37;15.00;99.90
69901;DHT22;57183;50.930;5.406;2022-07-23T04:34:03;15.00;99.90
69901;DHT22;57183;50.930;5.406;2022-07-23T04:36:28;15.00;99.90
69901;DHT22;57183;50.930;5.406;2022-07-23T04:38:54;15.10;99.90
69901;DHT22;57183;50.930;5.406;2022-07-23T04:41:20;15.10;99.90
69901;DHT22;57183;50.930;5.406;2022-07-23T04:43:46;15.10;99.90
69901;DHT22;57183;50.930;5.406;2022-07-23T04:46:12;15.10;99.90
69901;DHT22;57183;50.930;5.406;2022-07-23T04:48:37;15.20;99.90
69901;DHT22;57183;50.930;5.406;2022-07-23T04:51:03;15.30;99.90
69901;DHT22;57183;50.930;5.406;2022-07-23T04:53:29;15.30;99.90
69901;DHT22;57183;50.930;5.406;2022-07-23T04:55:55;15.40;99.90
69901;DHT22;57183;50.930;5.406;2022-07-23T04:58:20;15.50;99.90
69901;DHT22;57183;50.930;5.406;2022-07-23T05:00:46;15.50;99.90
69901;DHT22;57183;50.930;5.406;2022-07-23T05:03:12;15.60;99.90
69901;DHT22;57183;50.930;5.406;2022-07-23T05:05:38;15.50;99.90
69901;DHT22;57183;50.930;5.406;2022-07-23T05:08:04;15.60;99.90
69901;DHT22;57183;50.930;5.406;2022-07-23T05:10:30;15.70;99.90
69901;DHT22;57183;50.930;5.406;2022-07-23T05:12:55;15.70;99.90
69901;DHT22;57183;50.930;5.406;2022-07-23T05:15:21;15.80;99.90
69901;DHT22;57183;50.930;5.406;2022-07-23T05:17:47;15.90;99.90
69901;DHT22;57183;50.930;5.406;2022-07-23T05:20:13;16.00;99.90
69901;DHT22;57183;50.930;5.406;2022-07-23T05:22:39;16.10;99.90
69901;DHT22;57183;50.930;5.406;2022-07-23T05:25:05;16.20;99.90
69901;DHT22;57183;50.930;5.406;2022-07-23T05:27:31;16.30;99.90
69901;DHT22;57183;50.930;5.406;2022-07-23T05:29:57;16.40;99.90
69901;DHT22;57183;50.930;5.406;2022-07-23T05:32:23;16.50;99.90
69901;DHT22;57183;50.930;5.406;2022-07-23T05:34:49;16.60;99.90
69901;DHT22;57183;50.930;5.406;2022-07-23T05:37:15;16.70;99.90
69901;DHT22;57183;50.930;5.406;2022-07-23T05:39:40;16.90;99.90
69901;DHT22;57183;50.930;5.406;2022-07-23T05:42:06;16.90;99.90
69901;DHT22;57183;50.930;5.406;2022-07-23T05:44:31;17.10;99.90
69901;DHT22;57183;50.930;5.406;2022-07-23T05:46:57;17.10;99.90
69901;DHT22;57183;50.930;5.406;2022-07-23T05:49:23;17.10;99.90
69901;DHT22;57183;50.930;5.406;2022-07-23T05:51:48;17.00;99.90
69901;DHT22;57183;50.930;5.406;2022-07-23T05:54:14;17.10;99.90
69901;DHT22;57183;50.930;5.406;2022-07-23T05:56:40;17.20;99.90
69901;DHT22;57183;50.930;5.406;2022-07-23T05:59:05;17.30;99.90
69901;DHT22;57183;50.930;5.406;2022-07-23T06:01:31;17.50;99.90
69901;DHT22;57183;50.930;5.406;2022-07-23T06:03:57;17.50;99.90
69901;DHT22;57183;50.930;5.406;2022-07-23T06:06:22;17.60;99.90
69901;DHT22;57183;50.930;5.406;2022-07-23T06:08:48;17.70;99.90
69901;DHT22;57183;50.930;5.406;2022-07-23T06:11:14;17.80;99.90
69901;DHT22;57183;50.930;5.406;2022-07-23T06:13:39;17.90;99.90
69901;DHT22;57183;50.930;5.406;2022-07-23T06:16:05;17.90;99.90
69901;DHT22;57183;50.930;5.406;2022-07-23T06:18:30;18.10;99.90
69901;DHT22;57183;50.930;5.406;2022-07-23T06:20:56;18.20;99.90
69901;DHT22;57183;50.930;5.406;2022-07-23T06:23:22;18.30;99.90
69901;DHT22;57183;50.930;5.406;2022-07-23T06:25:47;18.50;99.90
69901;DHT22;57183;50.930;5.406;2022-07-23T06:28:13;18.50;99.90
69901;DHT22;57183;50.930;5.406;2022-07-23T06:30:39;18.60;99.90
69901;DHT22;57183;50.930;5.406;2022-07-23T06:33:04;18.80;99.90
69901;DHT22;57183;50.930;5.406;2022-07-23T06:35:30;19.10;99.90
69901;DHT22;57183;50.930;5.406;2022-07-23T06:37:56;19.30;99.90
69901;DHT22;57183;50.930;5.406;2022-07-23T06:40:21;19.30;99.90
69901;DHT22;57183;50.930;5.406;2022-07-23T06:42:47;19.30;99.90
69901;DHT22;57183;50.930;5.406;2022-07-23T06:45:13;19.40;99.90
69901;DHT22;57183;50.930;5.406;2022-07-23T06:47:39;19.50;99.90
69901;DHT22;57183;50.930;5.406;2022-07-23T06:50:06;19.80;99.90
69901;DHT22;57183;50.930;5.406;2022-07-23T06:52:31;19.90;99.90
69901;DHT22;57183;50.930;5.406;2022-07-23T06:54:57;20.00;99.90
69901;DHT22;57183;50.930;5.406;2022-07-23T06:57:23;20.20;99.90
69901;DHT22;57183;50.930;5.406;2022-07-23T06:59:51;20.10;99.90
69901;DHT22;57183;50.930;5.406;2022-07-23T07:02:16;20.30;99.90
69901;DHT22;57183;50.930;5.406;2022-07-23T07:04:42;20.40;99.90
69901;DHT22;57183;50.930;5.406;2022-07-23T07:07:08;20.50;99.90
69901;DHT22;57183;50.930;5.406;2022-07-23T07:09:33;20.50;99.90
69901;DHT22;57183;50.930;5.406;2022-07-23T07:11:59;20.70;99.90
69901;DHT22;57183;50.930;5.406;2022-07-23T07:14:25;20.60;99.90
69901;DHT22;57183;50.930;5.406;2022-07-23T07:16:51;20.50;99.90
69901;DHT22;57183;50.930;5.406;2022-07-23T07:19:16;20.70;99.90
69901;DHT22;57183;50.930;5.406;2022-07-23T07:21:42;20.70;99.90
69901;DHT22;57183;50.930;5.406;2022-07-23T07:24:08;20.90;99.90
69901;DHT22;57183;50.930;5.406;2022-07-23T07:26:33;21.00;99.90
69901;DHT22;57183;50.930;5.406;2022-07-23T07:28:59;21.00;99.90
69901;DHT22;57183;50.930;5.406;2022-07-23T07:31:25;21.10;99.90
69901;DHT22;57183;50.930;5.406;2022-07-23T07:33:51;21.00;99.90
69901;DHT22;57183;50.930;5.406;2022-07-23T07:36:17;20.80;99.90
69901;DHT22;57183;50.930;5.406;2022-07-23T07:38:42;20.90;99.90
69901;DHT22;57183;50.930;5.406;2022-07-23T07:41:08;21.10;99.90
69901;DHT22;57183;50.930;5.406;2022-07-23T07:43:36;21.50;99.90
69901;DHT22;57183;50.930;5.406;2022-07-23T07:46:03;21.50;99.90
69901;DHT22;57183;50.930;5.406;2022-07-23T07:48:28;21.60;99.90
69901;DHT22;57183;50.930;5.406;2022-07-23T07:50:54;21.40;99.90
69901;DHT22;57183;50.930;5.406;2022-07-23T07:53:20;21.50;99.90
69901;DHT22;57183;50.930;5.406;2022-07-23T07:55:45;21.40;99.90
69901;DHT22;57183;50.930;5.406;2022-07-23T07:58:11;21.30;99.90
69901;DHT22;57183;50.930;5.406;2022-07-23T08:00:37;21.50;99.90
69901;DHT22;57183;50.930;5.406;2022-07-23T08:03:03;21.70;99.90
69901;DHT22;57183;50.930;5.406;2022-07-23T08:05:30;21.90;99.90
69901;DHT22;57183;50.930;5.406;2022-07-23T08:07:57;22.10;99.90
69901;DHT22;57183;50.930;5.406;2022-07-23T08:10:26;22.10;99.90
69901;DHT22;57183;50.930;5.406;2022-07-23T08:12:54;22.30;99.90
69901;DHT22;57183;50.930;5.406;2022-07-23T08:15:21;22.40;99.90
69901;DHT22;57183;50.930;5.406;2022-07-23T08:17:48;22.60;99.90
69901;DHT22;57183;50.930;5.406;2022-07-23T08:20:18;22.60;99.90
69901;DHT22;57183;50.930;5.406;2022-07-23T08:23:02;22.50;99.90
69901;DHT22;57183;50.930;5.406;2022-07-23T08:25:34;22.70;99.90
69901;DHT22;57183;50.930;5.406;2022-07-23T08:28:01;22.60;99.90
69901;DHT22;57183;50.930;5.406;2022-07-23T08:30:27;22.80;99.90
69901;DHT22;57183;50.930;5.406;2022-07-23T08:33:01;22.90;99.90
69901;DHT22;57183;50.930;5.406;2022-07-23T08:35:29;23.00;99.90
69901;DHT22;57183;50.930;5.406;2022-07-23T08:37:55;23.20;99.90
69901;DHT22;57183;50.930;5.406;2022-07-23T08:40:22;23.20;99.90
69901;DHT22;57183;50.930;5.406;2022-07-23T08:42:49;23.30;99.90
69901;DHT22;57183;50.930;5.406;2022-07-23T08:45:17;23.40;99.90
69901;DHT22;57183;50.930;5.406;2022-07-23T08:47:44;23.40;99.90
69901;DHT22;57183;50.930;5.406;2022-07-23T08:50:11;23.50;99.90
69901;DHT22;57183;50.930;5.406;2022-07-23T08:52:37;23.60;99.90
69901;DHT22;57183;50.930;5.406;2022-07-23T08:55:04;23.60;99.90
69901;DHT22;57183;50.930;5.406;2022-07-23T08:57:30;23.10;99.90
69901;DHT22;57183;50.930;5.406;2022-07-23T08:59:57;22.80;99.90
69901;DHT22;57183;50.930;5.406;2022-07-23T09:02:22;22.80;99.90
69901;DHT22;57183;50.930;5.406;2022-07-23T09:04:48;22.80;99.90
69901;DHT22;57183;50.930;5.406;2022-07-23T09:07:14;22.70;99.90
69901;DHT22;57183;50.930;5.406;2022-07-23T09:09:40;22.60;99.90
69901;DHT22;57183;50.930;5.406;2022-07-23T09:12:08;22.70;99.90
69901;DHT22;57183;50.930;5.406;2022-07-23T09:14:39;22.80;99.90
69901;DHT22;57183;50.930;5.406;2022-07-23T09:17:13;22.90;99.90
69901;DHT22;57183;50.930;5.406;2022-07-23T09:19:40;23.00;99.90
69901;DHT22;57183;50.930;5.406;2022-07-23T09:22:21;23.20;99.90
69901;DHT22;57183;50.930;5.406;2022-07-23T09:25:11;23.30;99.90
69901;DHT22;57183;50.930;5.406;2022-07-23T09:27:48;23.60;99.90
69901;DHT22;57183;50.930;5.406;2022-07-23T09:30:15;23.60;99.90
69901;DHT22;57183;50.930;5.406;2022-07-23T09:32:41;23.70;99.90
69901;DHT22;57183;50.930;5.406;2022-07-23T09:35:07;23.70;99.90
69901;DHT22;57183;50.930;5.406;2022-07-23T09:37:33;23.80;99.90
69901;DHT22;57183;50.930;5.406;2022-07-23T09:40:09;23.90;99.50
69901;DHT22;57183;50.930;5.406;2022-07-23T09:42:37;23.70;99.90
69901;DHT22;57183;50.930;5.406;2022-07-23T09:45:03;23.50;99.90
69901;DHT22;57183;50.930;5.406;2022-07-23T09:47:30;23.60;99.90
69901;DHT22;57183;50.930;5.406;2022-07-23T09:50:09;23.40;99.90
69901;DHT22;57183;50.930;5.406;2022-07-23T09:52:49;23.50;99.40
69901;DHT22;57183;50.930;5.406;2022-07-23T09:55:16;23.60;99.60
69901;DHT22;57183;50.930;5.406;2022-07-23T09:57:43;23.70;99.90
69901;DHT22;57183;50.930;5.406;2022-07-23T10:00:16;24.00;99.90
69901;DHT22;57183;50.930;5.406;2022-07-23T10:02:41;24.30;98.70
69901;DHT22;57183;50.930;5.406;2022-07-23T10:05:11;24.50;97.90
69901;DHT22;57183;50.930;5.406;2022-07-23T10:07:38;24.60;97.70
69901;DHT22;57183;50.930;5.406;2022-07-23T10:10:05;24.60;97.60
69901;DHT22;57183;50.930;5.406;2022-07-23T10:12:32;24.70;98.30
69901;DHT22;57183;50.930;5.406;2022-07-23T10:15:09;24.90;97.90
69901;DHT22;57183;50.930;5.406;2022-07-23T10:17:36;24.80;95.40
69901;DHT22;57183;50.930;5.406;2022-07-23T10:20:04;24.70;96.10
69901;DHT22;57183;50.930;5.406;2022-07-23T10:22:36;24.70;95.80
69901;DHT22;57183;50.930;5.406;2022-07-23T10:31:07;24.80;95.20
69901;DHT22;57183;50.930;5.406;2022-07-23T10:36:19;24.80;94.40
69901;DHT22;57183;50.930;5.406;2022-07-23T10:41:35;25.20;93.40
69901;DHT22;57183;50.930;5.406;2022-07-23T10:47:26;25.40;91.80
69901;DHT22;57183;50.930;5.406;2022-07-23T10:50:22;25.40;90.90
69901;DHT22;57183;50.930;5.406;2022-07-23T10:57:58;24.90;91.30
69901;DHT22;57183;50.930;5.406;2022-07-23T11:00:26;24.80;92.50
69901;DHT22;57183;50.930;5.406;2022-07-23T11:02:57;24.80;91.60
69901;DHT22;57183;50.930;5.406;2022-07-23T11:05:41;24.90;91.10
69901;DHT22;57183;50.930;5.406;2022-07-23T11:08:12;24.90;91.30
69901;DHT22;57183;50.930;5.406;2022-07-23T11:16:07;25.30;89.70
69901;DHT22;57183;50.930;5.406;2022-07-23T11:23:58;25.50;87.80
69901;DHT22;57183;50.930;5.406;2022-07-23T11:29:37;25.40;86.60
69901;DHT22;57183;50.930;5.406;2022-07-23T11:32:23;25.30;87.40
69901;DHT22;57183;50.930;5.406;2022-07-23T11:34:49;25.20;86.10
69901;DHT22;57183;50.930;5.406;2022-07-23T11:37:42;25.40;83.70
69901;DHT22;57183;50.930;5.406;2022-07-23T11:40:12;25.40;83.20
69901;DHT22;57183;50.930;5.406;2022-07-23T11:43:01;25.50;83.60
69901;DHT22;57183;50.930;5.406;2022-07-23T11:45:54;25.60;82.10
69901;DHT22;57183;50.930;5.406;2022-07-23T11:48:23;25.90;84.40
69901;DHT22;57183;50.930;5.406;2022-07-23T11:50:50;26.10;84.90
69901;DHT22;57183;50.930;5.406;2022-07-23T11:53:27;26.20;82.50
69901;DHT22;57183;50.930;5.406;2022-07-23T11:55:53;26.10;80.60
69901;DHT22;57183;50.930;5.406;2022-07-23T11:58:21;26.10;81.50
69901;DHT22;57183;50.930;5.406;2022-07-23T12:00:47;26.10;80.70
69901;DHT22;57183;50.930;5.406;2022-07-23T12:03:13;26.20;81.90
69901;DHT22;57183;50.930;5.406;2022-07-23T12:05:39;26.30;83.60
69901;DHT22;57183;50.930;5.406;2022-07-23T12:08:07;26.30;81.90
69901;DHT22;57183;50.930;5.406;2022-07-23T12:10:39;26.20;84.40
69901;DHT22;57183;50.930;5.406;2022-07-23T12:13:10;26.20;82.40
69901;DHT22;57183;50.930;5.406;2022-07-23T12:15:45;26.10;80.70
69901;DHT22;57183;50.930;5.406;2022-07-23T12:18:14;26.10;79.30
69901;DHT22;57183;50.930;5.406;2022-07-23T12:20:45;26.30;81.00
69901;DHT22;57183;50.930;5.406;2022-07-23T12:23:12;26.40;79.30
69901;DHT22;57183;50.930;5.406;2022-07-23T12:25:43;26.40;78.70
69901;DHT22;57183;50.930;5.406;2022-07-23T12:28:14;26.20;82.20
69901;DHT22;57183;50.930;5.406;2022-07-23T12:30:46;26.20;81.00
69901;DHT22;57183;50.930;5.406;2022-07-23T12:33:27;26.30;81.70
69901;DHT22;57183;50.930;5.406;2022-07-23T12:35:55;26.40;78.40
69901;DHT22;57183;50.930;5.406;2022-07-23T12:38:22;26.60;78.20
69901;DHT22;57183;50.930;5.406;2022-07-23T12:40:58;26.60;80.80
69901;DHT22;57183;50.930;5.406;2022-07-23T12:43:29;26.80;78.30
69901;DHT22;57183;50.930;5.406;2022-07-23T12:46:03;26.90;79.20
69901;DHT22;57183;50.930;5.406;2022-07-23T12:48:49;27.00;82.10
69901;DHT22;57183;50.930;5.406;2022-07-23T12:51:17;27.20;79.10
69901;DHT22;57183;50.930;5.406;2022-07-23T12:53:46;27.40;79.30
69901;DHT22;57183;50.930;5.406;2022-07-23T12:56:21;27.30;75.10
69901;DHT22;57183;50.930;5.406;2022-07-23T12:58:50;27.10;74.90
69901;DHT22;57183;50.930;5.406;2022-07-23T13:06:33;26.90;73.80
69901;DHT22;57183;50.930;5.406;2022-07-23T13:08:59;27.00;74.10
69901;DHT22;57183;50.930;5.406;2022-07-23T13:11:25;27.10;78.30
69901;DHT22;57183;50.930;5.406;2022-07-23T13:13:51;27.20;78.10
69901;DHT22;57183;50.930;5.406;2022-07-23T13:16:16;27.20;74.40
69901;DHT22;57183;50.930;5.406;2022-07-23T13:18:42;27.20;75.30
69901;DHT22;57183;50.930;5.406;2022-07-23T13:21:08;27.10;73.10
69901;DHT22;57183;50.930;5.406;2022-07-23T13:23:34;27.00;74.70
69901;DHT22;57183;50.930;5.406;2022-07-23T13:26:00;27.30;72.70
69901;DHT22;57183;50.930;5.406;2022-07-23T13:28:25;27.60;73.20
69901;DHT22;57183;50.930;5.406;2022-07-23T13:30:51;27.80;72.00
69901;DHT22;57183;50.930;5.406;2022-07-23T13:33:22;27.70;73.10
69901;DHT22;57183;50.930;5.406;2022-07-23T13:35:49;27.70;73.10
69901;DHT22;57183;50.930;5.406;2022-07-23T13:38:16;27.80;73.40
69901;DHT22;57183;50.930;5.406;2022-07-23T13:40:44;27.90;70.10
69901;DHT22;57183;50.930;5.406;2022-07-23T13:43:12;28.10;72.50
69901;DHT22;57183;50.930;5.406;2022-07-23T13:45:38;28.20;69.70
69901;DHT22;57183;50.930;5.406;2022-07-23T13:48:05;28.40;71.40
69901;DHT22;57183;50.930;5.406;2022-07-23T13:50:32;28.20;69.20
69901;DHT22;57183;50.930;5.406;2022-07-23T13:53:01;28.00;68.40
69901;DHT22;57183;50.930;5.406;2022-07-23T13:55:26;28.00;69.90
69901;DHT22;57183;50.930;5.406;2022-07-23T13:57:52;28.10;68.80
69901;DHT22;57183;50.930;5.406;2022-07-23T14:00:18;28.50;70.60
69901;DHT22;57183;50.930;5.406;2022-07-23T14:02:43;28.90;68.40
69901;DHT22;57183;50.930;5.406;2022-07-23T14:05:10;30.40;65.20
69901;DHT22;57183;50.930;5.406;2022-07-23T14:07:37;32.60;61.70
69901;DHT22;57183;50.930;5.406;2022-07-23T14:10:04;33.00;56.10
69901;DHT22;57183;50.930;5.406;2022-07-23T14:12:30;34.20;56.50
69901;DHT22;57183;50.930;5.406;2022-07-23T14:14:56;34.20;53.80
69901;DHT22;57183;50.930;5.406;2022-07-23T14:17:22;34.30;53.20
69901;DHT22;57183;50.930;5.406;2022-07-23T14:19:48;35.20;53.40
69901;DHT22;57183;50.930;5.406;2022-07-23T14:22:14;35.20;51.70
69901;DHT22;57183;50.930;5.406;2022-07-23T14:24:40;35.50;52.00
69901;DHT22;57183;50.930;5.406;2022-07-23T14:27:06;35.10;53.30
69901;DHT22;57183;50.930;5.406;2022-07-23T14:29:32;34.40;51.60
69901;DHT22;57183;50.930;5.406;2022-07-23T14:31:58;34.60;53.00
69901;DHT22;57183;50.930;5.406;2022-07-23T14:34:25;34.50;52.80
69901;DHT22;57183;50.930;5.406;2022-07-23T14:36:51;34.80;53.00
69901;DHT22;57183;50.930;5.406;2022-07-23T14:39:17;35.20;51.50
69901;DHT22;57183;50.930;5.406;2022-07-23T14:41:43;34.90;51.50
69901;DHT22;57183;50.930;5.406;2022-07-23T14:44:09;34.60;51.80
69901;DHT22;57183;50.930;5.406;2022-07-23T14:46:35;35.20;52.50
69901;DHT22;57183;50.930;5.406;2022-07-23T14:49:02;35.80;51.80
69901;DHT22;57183;50.930;5.406;2022-07-23T14:51:28;36.20;50.00
69901;DHT22;57183;50.930;5.406;2022-07-23T14:53:53;35.40;49.80
69901;DHT22;57183;50.930;5.406;2022-07-23T14:56:19;34.90;50.30
69901;DHT22;57183;50.930;5.406;2022-07-23T14:58:45;34.50;52.40
69901;DHT22;57183;50.930;5.406;2022-07-23T15:01:11;33.80;52.00
69901;DHT22;57183;50.930;5.406;2022-07-23T15:03:36;33.50;53.00
69901;DHT22;57183;50.930;5.406;2022-07-23T15:06:03;33.70;53.00
69901;DHT22;57183;50.930;5.406;2022-07-23T15:08:29;33.80;53.20
69901;DHT22;57183;50.930;5.406;2022-07-23T15:10:54;34.00;52.70
69901;DHT22;57183;50.930;5.406;2022-07-23T15:13:20;33.80;53.10
69901;DHT22;57183;50.930;5.406;2022-07-23T15:15:46;33.40;54.20
69901;DHT22;57183;50.930;5.406;2022-07-23T15:18:12;33.20;54.20
69901;DHT22;57183;50.930;5.406;2022-07-23T15:20:37;33.10;53.90
69901;DHT22;57183;50.930;5.406;2022-07-23T15:23:05;32.50;56.40
69901;DHT22;57183;50.930;5.406;2022-07-23T15:25:30;32.10;54.70
69901;DHT22;57183;50.930;5.406;2022-07-23T15:27:57;32.40;54.90
69901;DHT22;57183;50.930;5.406;2022-07-23T15:30:24;32.60;55.20
69901;DHT22;57183;50.930;5.406;2022-07-23T15:32:50;32.90;54.10
69901;DHT22;57183;50.930;5.406;2022-07-23T15:35:16;32.90;54.70
69901;DHT22;57183;50.930;5.406;2022-07-23T15:37:42;32.80;55.80
69901;DHT22;57183;50.930;5.406;2022-07-23T15:40:09;32.90;53.80
69901;DHT22;57183;50.930;5.406;2022-07-23T15:42:35;33.40;54.30
69901;DHT22;57183;50.930;5.406;2022-07-23T15:45:01;34.20;52.40
69901;DHT22;57183;50.930;5.406;2022-07-23T15:47:27;34.50;50.80
69901;DHT22;57183;50.930;5.406;2022-07-23T15:49:53;34.90;51.40
69901;DHT22;57183;50.930;5.406;2022-07-23T15:52:18;35.10;51.80
69901;DHT22;57183;50.930;5.406;2022-07-23T15:54:44;35.00;50.30
69901;DHT22;57183;50.930;5.406;2022-07-23T15:57:10;34.90;51.70
69901;DHT22;57183;50.930;5.406;2022-07-23T15:59:36;34.60;51.30
69901;DHT22;57183;50.930;5.406;2022-07-23T16:02:02;34.70;52.00
69901;DHT22;57183;50.930;5.406;2022-07-23T16:04:28;34.50;51.50
69901;DHT22;57183;50.930;5.406;2022-07-23T16:06:55;34.30;51.90
69901;DHT22;57183;50.930;5.406;2022-07-23T16:09:21;34.50;51.40